createdAt,value
2018-10-12T00:00:35.285Z,1014.67
2018-10-12T00:01:35.189Z,1014.64
2018-10-12T00:02:35.144Z,1014.61
2018-10-12T00:03:35.097Z,1014.61
2018-10-12T00:04:35.053Z,1014.64
2018-10-12T00:05:35.004Z,1014.62
2018-10-12T00:06:34.959Z,1014.63
2018-10-12T00:07:34.912Z,1014.60
2018-10-12T00:08:34.866Z,1014.57
2018-10-12T00:09:34.821Z,1014.54
2018-10-12T00:10:34.775Z,1014.54
2018-10-12T00:11:34.728Z,1014.57
2018-10-12T00:12:34.685Z,1014.60
2018-10-12T00:13:34.637Z,1014.56
2018-10-12T00:14:34.590Z,1014.57
2018-10-12T00:15:34.544Z,1014.63
2018-10-12T00:16:34.498Z,1014.58
2018-10-12T00:17:34.453Z,1014.59
2018-10-12T00:18:34.407Z,1014.60
2018-10-12T00:19:34.360Z,1014.58
2018-10-12T00:20:34.314Z,1014.62
2018-10-12T00:21:34.268Z,1014.62
2018-10-12T00:22:34.222Z,1014.61
2018-10-12T00:23:34.176Z,1014.59
2018-10-12T00:24:34.130Z,1014.62
2018-10-12T00:25:34.084Z,1014.58
2018-10-12T00:26:34.039Z,1014.60
2018-10-12T00:27:33.991Z,1014.60
2018-10-12T00:28:33.995Z,1014.59
2018-10-12T00:29:33.900Z,1014.57
2018-10-12T00:30:33.854Z,1014.60
2018-10-12T00:31:33.807Z,1014.57
2018-10-12T00:32:33.761Z,1014.58
2018-10-12T00:33:33.718Z,1014.58
2018-10-12T00:34:33.669Z,1014.53
2018-10-12T00:35:33.623Z,1014.56
2018-10-12T00:36:33.579Z,1014.57
2018-10-12T00:37:33.532Z,1014.58
2018-10-12T00:38:33.486Z,1014.59
2018-10-12T00:39:33.439Z,1014.61
2018-10-12T00:40:33.393Z,1014.63
2018-10-12T00:41:33.348Z,1014.63
2018-10-12T00:42:33.301Z,1014.67
2018-10-12T00:43:33.256Z,1014.71
2018-10-12T00:44:33.208Z,1014.69
2018-10-12T00:45:33.163Z,1014.66
2018-10-12T00:46:33.119Z,1014.71
2018-10-12T00:47:33.070Z,1014.69
2018-10-12T00:48:33.024Z,1014.67
2018-10-12T00:49:33.016Z,1014.66
2018-10-12T00:50:32.933Z,1014.68
2018-10-12T00:51:32.886Z,1014.69
2018-10-12T00:52:32.884Z,1014.71
2018-10-12T00:53:32.795Z,1014.67
2018-10-12T00:54:32.749Z,1014.68
2018-10-12T00:55:32.702Z,1014.67
2018-10-12T00:56:32.656Z,1014.69
2018-10-12T00:57:32.610Z,1014.69
2018-10-12T00:58:32.566Z,1014.70
2018-10-12T00:59:32.834Z,1014.68
2018-10-12T01:00:32.472Z,1014.68
2018-10-12T01:01:32.426Z,1014.67
2018-10-12T01:02:32.380Z,1014.73
2018-10-12T01:03:32.333Z,1014.72
2018-10-12T01:04:32.287Z,1014.72
2018-10-12T01:05:32.241Z,1014.71
2018-10-12T01:06:32.212Z,1014.74
2018-10-12T01:07:32.149Z,1014.71
2018-10-12T01:08:32.106Z,1014.73
2018-10-12T01:09:32.060Z,1014.72
2018-10-12T01:10:32.012Z,1014.72
2018-10-12T01:11:31.965Z,1014.68
2018-10-12T01:12:31.919Z,1014.70
2018-10-12T01:13:31.871Z,1014.76
2018-10-12T01:14:31.831Z,1014.70
2018-10-12T01:15:31.780Z,1014.73
2018-10-12T01:16:31.734Z,1014.71
2018-10-12T01:17:31.692Z,1014.72
2018-10-12T01:18:31.643Z,1014.76
2018-10-12T01:19:31.597Z,1014.74
2018-10-12T01:20:31.550Z,1014.74
2018-10-12T01:21:31.504Z,1014.76
2018-10-12T01:22:31.458Z,1014.76
2018-10-12T01:23:31.411Z,1014.76
2018-10-12T01:24:31.365Z,1014.73
2018-10-12T01:25:31.320Z,1014.79
2018-10-12T01:26:31.278Z,1014.75
2018-10-12T01:27:31.226Z,1014.78
2018-10-12T01:28:31.181Z,1014.78
2018-10-12T01:29:31.135Z,1014.78
2018-10-12T01:30:31.139Z,1014.78
2018-10-12T01:31:31.042Z,1014.81
2018-10-12T01:32:30.997Z,1014.75
2018-10-12T01:33:30.952Z,1014.81
2018-10-12T01:34:30.911Z,1014.77
2018-10-12T01:35:30.861Z,1014.78
2018-10-12T01:36:30.812Z,1014.79
2018-10-12T01:37:30.766Z,1014.84
2018-10-12T01:38:30.721Z,1014.77
2018-10-12T01:39:30.674Z,1014.83
2018-10-12T01:40:30.680Z,1014.81
2018-10-12T01:41:30.582Z,1014.81
2018-10-12T01:42:30.537Z,1014.84
2018-10-12T01:43:30.489Z,1014.81
2018-10-12T01:44:30.444Z,1014.85
2018-10-12T01:45:30.398Z,1014.84
2018-10-12T01:46:30.352Z,1014.84
2018-10-12T01:47:30.311Z,1014.89
2018-10-12T01:48:30.259Z,1014.85
2018-10-12T01:49:30.215Z,1014.86
2018-10-12T01:50:30.171Z,1014.87
2018-10-12T01:51:30.121Z,1014.92
2018-10-12T01:52:30.075Z,1014.88
2018-10-12T01:53:30.029Z,1014.91
2018-10-12T01:54:29.984Z,1014.93
2018-10-12T01:55:29.936Z,1014.93
2018-10-12T01:56:29.891Z,1014.94
2018-10-12T01:57:29.845Z,1014.94
2018-10-12T01:58:29.801Z,1014.91
2018-10-12T01:59:29.753Z,1014.93
2018-10-12T02:00:29.707Z,1014.96
2018-10-12T02:01:29.661Z,1014.94
2018-10-12T02:02:29.615Z,1014.95
2018-10-12T02:03:29.568Z,1014.98
2018-10-12T02:04:29.523Z,1014.98
2018-10-12T02:05:29.483Z,1014.99
2018-10-12T02:06:29.432Z,1014.96
2018-10-12T02:07:29.383Z,1014.94
2018-10-12T02:08:29.338Z,1014.90
2018-10-12T02:09:29.292Z,1014.92
2018-10-12T02:10:29.247Z,1014.93
2018-10-12T02:11:29.200Z,1014.91
2018-10-12T02:12:29.153Z,1014.95
2018-10-12T02:13:29.108Z,1014.95
2018-10-12T02:14:29.063Z,1014.96
2018-10-12T02:15:29.333Z,1014.98
2018-10-12T02:16:29.286Z,1015.02
2018-10-12T02:17:29.242Z,1015.04
2018-10-12T02:18:28.877Z,1015.05
2018-10-12T02:19:28.831Z,1015.04
2018-10-12T02:20:28.785Z,1015.03
2018-10-12T02:21:28.739Z,1015.02
2018-10-12T02:22:28.693Z,1014.99
2018-10-12T02:23:28.647Z,1015.01
2018-10-12T02:24:28.601Z,1014.99
2018-10-12T02:25:28.555Z,1015.04
2018-10-12T02:26:28.512Z,1014.95
2018-10-12T02:27:28.464Z,1014.94
2018-10-12T02:28:28.419Z,1014.99
2018-10-12T02:29:28.370Z,1015.01
2018-10-12T02:30:28.325Z,1015.04
2018-10-12T02:31:28.278Z,1015.02
2018-10-12T02:32:28.233Z,1015.05
2018-10-12T02:33:28.186Z,1014.97
2018-10-12T02:34:28.140Z,1015.01
2018-10-12T02:35:28.095Z,1015.00
2018-10-12T02:36:28.048Z,1015.01
2018-10-12T02:37:28.002Z,1015.03
2018-10-12T02:38:27.956Z,1014.98
2018-10-12T02:39:27.909Z,1015.03
2018-10-12T02:40:27.863Z,1015.04
2018-10-12T02:41:27.817Z,1015.05
2018-10-12T02:42:27.771Z,1015.04
2018-10-12T02:43:27.725Z,1015.08
2018-10-12T02:44:27.684Z,1015.10
2018-10-12T02:45:27.636Z,1015.17
2018-10-12T02:46:27.587Z,1015.17
2018-10-12T02:47:27.541Z,1015.15
2018-10-12T02:48:27.495Z,1015.18
2018-10-12T02:49:27.449Z,1015.21
2018-10-12T02:50:27.403Z,1015.23
2018-10-12T02:51:27.356Z,1015.19
2018-10-12T02:52:27.360Z,1015.21
2018-10-12T02:53:27.264Z,1015.18
2018-10-12T02:54:27.221Z,1015.19
2018-10-12T02:55:27.172Z,1015.21
2018-10-12T02:56:27.127Z,1015.17
2018-10-12T02:57:27.080Z,1015.19
2018-10-12T02:58:27.084Z,1015.19
2018-10-12T02:59:26.987Z,1015.21
2018-10-12T03:00:26.941Z,1015.18
2018-10-12T03:01:26.895Z,1015.22
2018-10-12T03:02:26.849Z,1015.18
2018-10-12T03:03:26.807Z,1015.26
2018-10-12T03:04:26.756Z,1015.25
2018-10-12T03:05:26.710Z,1015.20
2018-10-12T03:06:26.666Z,1015.29
2018-10-12T03:07:26.617Z,1015.27
2018-10-12T03:08:26.571Z,1015.25
2018-10-12T03:09:26.526Z,1015.23
2018-10-12T03:10:26.481Z,1015.23
2018-10-12T03:11:26.433Z,1015.22
2018-10-12T03:12:26.389Z,1015.26
2018-10-12T03:13:26.341Z,1015.22
2018-10-12T03:14:26.345Z,1015.27
2018-10-12T03:15:26.248Z,1015.30
2018-10-12T03:16:26.204Z,1015.31
2018-10-12T03:17:26.157Z,1015.31
2018-10-12T03:18:26.111Z,1015.36
2018-10-12T03:19:26.064Z,1015.30
2018-10-12T03:20:26.018Z,1015.31
2018-10-12T03:21:25.972Z,1015.32
2018-10-12T03:22:25.926Z,1015.29
2018-10-12T03:23:25.879Z,1015.29
2018-10-12T03:24:25.833Z,1015.30
2018-10-12T03:25:25.787Z,1015.31
2018-10-12T03:26:25.742Z,1015.31
2018-10-12T03:27:25.694Z,1015.29
2018-10-12T03:28:25.648Z,1015.27
2018-10-12T03:29:25.609Z,1015.27
2018-10-12T03:30:25.557Z,1015.25
2018-10-12T03:31:25.510Z,1015.25
2018-10-12T03:32:25.464Z,1015.27
2018-10-12T03:33:25.419Z,1015.23
2018-10-12T03:34:25.375Z,1015.23
2018-10-12T03:35:25.326Z,1015.24
2018-10-12T03:36:25.280Z,1015.28
2018-10-12T03:37:25.327Z,1015.29
2018-10-12T03:38:25.188Z,1015.31
2018-10-12T03:39:25.191Z,1015.30
2018-10-12T03:40:25.098Z,1015.31
2018-10-12T03:41:25.049Z,1015.30
2018-10-12T03:42:25.005Z,1015.33
2018-10-12T03:43:24.966Z,1015.36
2018-10-12T03:44:24.911Z,1015.35
2018-10-12T03:45:24.864Z,1015.33
2018-10-12T03:46:24.819Z,1015.35
2018-10-12T03:47:24.822Z,1015.33
2018-10-12T03:48:24.725Z,1015.38
2018-10-12T03:49:24.680Z,1015.39
2018-10-12T03:50:24.634Z,1015.36
2018-10-12T03:51:24.587Z,1015.38
2018-10-12T03:52:24.555Z,1015.33
2018-10-12T03:53:24.495Z,1015.39
2018-10-12T03:54:24.449Z,1015.34
2018-10-12T03:55:24.402Z,1015.34
2018-10-12T03:56:24.356Z,1015.38
2018-10-12T03:57:24.310Z,1015.39
2018-10-12T03:58:24.267Z,1015.41
2018-10-12T03:59:24.217Z,1015.39
2018-10-12T04:00:24.172Z,1015.43
2018-10-12T04:01:24.126Z,1015.43
2018-10-12T04:02:24.080Z,1015.40
2018-10-12T04:03:24.034Z,1015.41
2018-10-12T04:04:23.987Z,1015.43
2018-10-12T04:05:23.941Z,1015.48
2018-10-12T04:06:23.895Z,1015.47
2018-10-12T04:07:23.850Z,1015.50
2018-10-12T04:08:23.802Z,1015.48
2018-10-12T04:09:23.757Z,1015.53
2018-10-12T04:10:23.711Z,1015.51
2018-10-12T04:11:23.664Z,1015.49
2018-10-12T04:12:23.632Z,1015.49
2018-10-12T04:13:23.572Z,1015.48
2018-10-12T04:14:23.527Z,1015.53
2018-10-12T04:15:23.479Z,1015.49
2018-10-12T04:16:23.433Z,1015.54
2018-10-12T04:17:23.388Z,1015.53
2018-10-12T04:18:23.342Z,1015.53
2018-10-12T04:19:23.294Z,1015.58
2018-10-12T04:20:23.248Z,1015.57
2018-10-12T04:21:23.208Z,1015.54
2018-10-12T04:22:23.157Z,1015.56
2018-10-12T04:23:23.110Z,1015.55
2018-10-12T04:24:23.064Z,1015.57
2018-10-12T04:25:23.018Z,1015.54
2018-10-12T04:26:22.973Z,1015.57
2018-10-12T04:27:22.926Z,1015.59
2018-10-12T04:28:22.879Z,1015.63
2018-10-12T04:29:22.834Z,1015.67
2018-10-12T04:30:22.788Z,1015.66
2018-10-12T04:31:22.741Z,1015.68
2018-10-12T04:32:22.695Z,1015.70
2018-10-12T04:33:22.666Z,1015.69
2018-10-12T04:34:22.603Z,1015.70
2018-10-12T04:35:22.556Z,1015.70
2018-10-12T04:36:22.510Z,1015.73
2018-10-12T04:37:22.467Z,1015.72
2018-10-12T04:38:22.418Z,1015.69
2018-10-12T04:39:22.371Z,1015.77
2018-10-12T04:40:22.326Z,1015.76
2018-10-12T04:41:22.282Z,1015.75
2018-10-12T04:42:22.234Z,1015.75
2018-10-12T04:43:22.187Z,1015.81
2018-10-12T04:44:22.141Z,1015.84
2018-10-12T04:45:22.095Z,1015.83
2018-10-12T04:46:22.049Z,1015.86
2018-10-12T04:47:22.096Z,1015.87
2018-10-12T04:48:21.956Z,1015.89
2018-10-12T04:49:21.914Z,1015.87
2018-10-12T04:50:21.864Z,1015.95
2018-10-12T04:51:21.819Z,1015.91
2018-10-12T04:52:21.771Z,1015.93
2018-10-12T04:53:21.726Z,1015.95
2018-10-12T04:54:21.680Z,1015.93
2018-10-12T04:55:21.637Z,1015.94
2018-10-12T04:56:21.591Z,1015.94
2018-10-12T04:57:21.541Z,1015.92
2018-10-12T04:58:21.495Z,1015.94
2018-10-12T04:59:21.455Z,1015.95
2018-10-12T05:00:21.402Z,1015.92
2018-10-12T05:01:21.368Z,1015.94
2018-10-12T05:02:21.310Z,1015.96
2018-10-12T05:03:21.264Z,1015.96
2018-10-12T05:04:21.217Z,1015.95
2018-10-12T05:05:21.172Z,1015.98
2018-10-12T05:06:21.127Z,1015.98
2018-10-12T05:07:21.078Z,1015.97
2018-10-12T05:08:21.033Z,1015.95
2018-10-12T05:09:20.987Z,1015.97
2018-10-12T05:10:20.941Z,1016.01
2018-10-12T05:11:20.895Z,1016.03
2018-10-12T05:12:20.848Z,1016.03
2018-10-12T05:13:20.802Z,1016.04
2018-10-12T05:14:20.756Z,1016.08
2018-10-12T05:15:20.709Z,1016.02
2018-10-12T05:16:20.663Z,1016.06
2018-10-12T05:17:20.617Z,1016.05
2018-10-12T05:18:20.573Z,1016.09
2018-10-12T05:19:20.525Z,1016.09
2018-10-12T05:20:20.480Z,1016.09
2018-10-12T05:21:20.433Z,1016.10
2018-10-12T05:22:20.387Z,1016.11
2018-10-12T05:23:20.340Z,1016.09
2018-10-12T05:24:20.293Z,1016.12
2018-10-12T05:25:20.247Z,1016.11
2018-10-12T05:26:20.203Z,1016.09
2018-10-12T05:27:20.155Z,1016.17
2018-10-12T05:28:20.112Z,1016.15
2018-10-12T05:29:20.062Z,1016.16
2018-10-12T05:30:20.101Z,1016.20
2018-10-12T05:31:19.969Z,1016.21
2018-10-12T05:32:19.924Z,1016.23
2018-10-12T05:33:19.879Z,1016.25
2018-10-12T05:34:19.832Z,1016.26
2018-10-12T05:35:19.785Z,1016.25
2018-10-12T05:36:19.739Z,1016.25
2018-10-12T05:37:19.693Z,1016.27
2018-10-12T05:38:19.651Z,1016.27
2018-10-12T05:39:19.600Z,1016.32
2018-10-12T05:40:19.554Z,1016.30
2018-10-12T05:41:19.508Z,1016.30
2018-10-12T05:42:19.462Z,1016.32
2018-10-12T05:43:19.599Z,1016.34
2018-10-12T05:44:19.372Z,1016.36
2018-10-12T05:45:19.323Z,1016.35
2018-10-12T05:46:19.277Z,1016.40
2018-10-12T05:47:19.231Z,1016.42
2018-10-12T05:48:19.185Z,1016.43
2018-10-12T05:49:19.138Z,1016.42
2018-10-12T05:50:19.095Z,1016.42
2018-10-12T05:51:19.047Z,1016.45
2018-10-12T05:52:18.999Z,1016.46
2018-10-12T05:53:18.955Z,1016.50
2018-10-12T05:54:18.907Z,1016.49
2018-10-12T05:55:18.860Z,1016.48
2018-10-12T05:56:18.814Z,1016.48
2018-10-12T05:57:18.767Z,1016.49
2018-10-12T05:58:18.723Z,1016.50
2018-10-12T05:59:18.678Z,1016.49
2018-10-12T06:00:18.629Z,1016.53
2018-10-12T06:01:18.904Z,1016.51
2018-10-12T06:02:18.540Z,1016.58
2018-10-12T06:03:18.491Z,1016.56
2018-10-12T06:04:18.444Z,1016.54
2018-10-12T06:05:18.399Z,1016.56
2018-10-12T06:06:18.353Z,1016.57
2018-10-12T06:07:18.305Z,1016.61
2018-10-12T06:08:18.263Z,1016.56
2018-10-12T06:09:18.217Z,1016.58
2018-10-12T06:10:18.168Z,1016.62
2018-10-12T06:11:18.189Z,1016.64
2018-10-12T06:12:18.075Z,1016.61
2018-10-12T06:13:18.079Z,1016.61
2018-10-12T06:14:17.986Z,1016.64
2018-10-12T06:15:17.966Z,1016.70
2018-10-12T06:16:17.889Z,1016.68
2018-10-12T06:17:17.844Z,1016.69
2018-10-12T06:18:17.798Z,1016.75
2018-10-12T06:19:17.751Z,1016.70
2018-10-12T06:20:17.704Z,1016.72
2018-10-12T06:21:17.660Z,1016.74
2018-10-12T06:22:17.613Z,1016.73
2018-10-12T06:23:17.565Z,1016.74
2018-10-12T06:24:17.519Z,1016.70
2018-10-12T06:25:17.473Z,1016.71
2018-10-12T06:26:17.433Z,1016.77
2018-10-12T06:27:17.380Z,1016.79
2018-10-12T06:28:17.335Z,1016.79
2018-10-12T06:29:17.287Z,1016.79
2018-10-12T06:30:17.241Z,1016.82
2018-10-12T06:31:17.193Z,1016.82
2018-10-12T06:32:17.147Z,1016.77
2018-10-12T06:33:17.100Z,1016.81
2018-10-12T06:34:17.054Z,1016.86
2018-10-12T06:35:17.007Z,1016.87
2018-10-12T06:36:16.960Z,1016.85
2018-10-12T06:37:16.915Z,1016.80
2018-10-12T06:38:16.869Z,1016.80
2018-10-12T06:39:16.820Z,1016.76
2018-10-12T06:40:16.776Z,1016.81
2018-10-12T06:41:16.795Z,1016.80
2018-10-12T06:42:16.705Z,1016.82
2018-10-12T06:43:16.689Z,1016.84
2018-10-12T06:44:16.589Z,1016.84
2018-10-12T06:45:16.545Z,1016.86
2018-10-12T06:46:16.554Z,1016.92
2018-10-12T06:47:16.447Z,1016.92
2018-10-12T06:48:16.401Z,1016.92
2018-10-12T06:49:16.354Z,1016.92
2018-10-12T06:50:16.308Z,1016.96
2018-10-12T06:51:16.261Z,1016.95
2018-10-12T06:52:16.215Z,1017.03
2018-10-12T06:53:16.169Z,1017.04
2018-10-12T06:54:16.122Z,1017.09
2018-10-12T06:55:16.075Z,1017.05
2018-10-12T06:56:16.030Z,1017.07
2018-10-12T06:57:15.983Z,1017.08
2018-10-12T06:58:15.936Z,1017.15
2018-10-12T06:59:15.889Z,1017.09
2018-10-12T07:00:15.893Z,1017.12
2018-10-12T07:01:15.797Z,1017.14
2018-10-12T07:02:15.751Z,1017.16
2018-10-12T07:03:15.910Z,1017.12
2018-10-12T07:04:15.657Z,1017.12
2018-10-12T07:05:15.614Z,1017.10
2018-10-12T07:06:15.566Z,1017.08
2018-10-12T07:07:15.520Z,1017.11
2018-10-12T07:08:15.472Z,1017.14
2018-10-12T07:09:15.429Z,1017.10
2018-10-12T07:10:15.380Z,1017.16
2018-10-12T07:11:15.333Z,1017.20
2018-10-12T07:12:15.288Z,1017.24
2018-10-12T07:13:15.241Z,1017.24
2018-10-12T07:14:15.195Z,1017.29
2018-10-12T07:15:15.147Z,1017.28
2018-10-12T07:16:15.102Z,1017.32
2018-10-12T07:17:15.073Z,1017.36
2018-10-12T07:18:15.010Z,1017.40
2018-10-12T07:19:15.012Z,1017.45
2018-10-12T07:20:14.917Z,1017.44
2018-10-12T07:21:14.871Z,1017.47
2018-10-12T07:22:14.827Z,1017.44
2018-10-12T07:23:14.779Z,1017.43
2018-10-12T07:24:14.782Z,1017.43
2018-10-12T07:25:14.687Z,1017.51
2018-10-12T07:26:14.640Z,1017.48
2018-10-12T07:27:14.595Z,1017.48
2018-10-12T07:28:14.548Z,1017.48
2018-10-12T07:29:14.502Z,1017.50
2018-10-12T07:30:14.457Z,1017.52
2018-10-12T07:31:14.410Z,1017.51
2018-10-12T07:32:14.365Z,1017.52
2018-10-12T07:33:14.322Z,1017.51
2018-10-12T07:34:14.274Z,1017.49
2018-10-12T07:35:14.227Z,1017.48
2018-10-12T07:36:14.183Z,1017.51
2018-10-12T07:37:14.211Z,1017.50
2018-10-12T07:38:14.091Z,1017.52
2018-10-12T07:39:14.095Z,1017.50
2018-10-12T07:40:13.999Z,1017.46
2018-10-12T07:41:13.952Z,1017.46
2018-10-12T07:42:13.918Z,1017.47
2018-10-12T07:43:13.864Z,1017.44
2018-10-12T07:44:13.815Z,1017.42
2018-10-12T07:45:13.772Z,1017.45
2018-10-12T07:46:13.727Z,1017.47
2018-10-12T07:47:13.691Z,1017.47
2018-10-12T07:48:13.691Z,1017.56
2018-10-12T07:49:13.639Z,1017.59
2018-10-12T07:50:13.550Z,1017.60
2018-10-12T07:51:13.498Z,1017.61
2018-10-12T07:52:13.456Z,1017.66
2018-10-12T07:53:13.452Z,1017.62
2018-10-12T07:54:13.363Z,1017.68
2018-10-12T07:55:13.317Z,1017.68
2018-10-12T07:56:13.272Z,1017.76
2018-10-12T07:57:13.229Z,1017.77
2018-10-12T07:58:13.184Z,1017.78
2018-10-12T07:59:13.140Z,1017.78
2018-10-12T08:00:13.213Z,1017.78
2018-10-12T08:01:13.050Z,1017.82
2018-10-12T08:02:13.010Z,1017.81
2018-10-12T08:03:12.959Z,1017.82
2018-10-12T08:04:12.916Z,1017.88
2018-10-12T08:05:12.872Z,1017.83
2018-10-12T08:06:12.899Z,1017.84
2018-10-12T08:07:12.783Z,1017.88
2018-10-12T08:08:12.742Z,1017.90
2018-10-12T08:09:12.694Z,1017.90
2018-10-12T08:10:12.651Z,1017.91
2018-10-12T08:11:12.606Z,1017.97
2018-10-12T08:12:12.563Z,1017.94
2018-10-12T08:13:12.519Z,1017.93
2018-10-12T08:14:12.614Z,1017.92
2018-10-12T08:15:12.431Z,1017.91
2018-10-12T08:16:12.387Z,1017.84
2018-10-12T08:17:12.344Z,1017.89
2018-10-12T08:18:12.301Z,1017.87
2018-10-12T08:19:12.256Z,1017.88
2018-10-12T08:20:12.241Z,1017.87
2018-10-12T08:21:12.169Z,1017.95
2018-10-12T08:22:12.126Z,1017.94
2018-10-12T08:23:12.081Z,1017.94
2018-10-12T08:24:12.040Z,1017.97
2018-10-12T08:25:11.997Z,1018.01
2018-10-12T08:26:11.952Z,1018.05
2018-10-12T08:27:12.337Z,1018.09
2018-10-12T08:28:11.865Z,1018.15
2018-10-12T08:29:11.821Z,1018.18
2018-10-12T08:30:11.779Z,1018.19
2018-10-12T08:31:11.735Z,1018.18
2018-10-12T08:32:11.695Z,1018.15
2018-10-12T08:33:11.648Z,1018.16
2018-10-12T08:34:11.604Z,1018.11
2018-10-12T08:35:11.562Z,1018.19
2018-10-12T08:36:11.573Z,1018.13
2018-10-12T08:37:11.473Z,1018.13
2018-10-12T08:38:11.429Z,1018.13
2018-10-12T08:39:11.384Z,1018.15
2018-10-12T08:40:11.340Z,1018.11
2018-10-12T08:41:11.295Z,1018.09
2018-10-12T08:42:11.251Z,1018.15
2018-10-12T08:43:11.207Z,1018.18
2018-10-12T08:44:11.162Z,1018.19
2018-10-12T08:45:11.118Z,1018.20
2018-10-12T08:46:11.073Z,1018.19
2018-10-12T08:47:11.027Z,1018.21
2018-10-12T08:48:10.983Z,1018.19
2018-10-12T08:49:10.938Z,1018.20
2018-10-12T08:50:10.893Z,1018.20
2018-10-12T08:51:10.848Z,1018.22
2018-10-12T08:52:10.802Z,1018.24
2018-10-12T08:53:10.762Z,1018.29
2018-10-12T08:54:10.721Z,1018.29
2018-10-12T08:55:10.668Z,1018.26
2018-10-12T08:56:10.623Z,1018.24
2018-10-12T08:57:10.577Z,1018.26
2018-10-12T08:58:10.533Z,1018.31
2018-10-12T08:59:10.489Z,1018.31
2018-10-12T09:00:10.441Z,1018.28
2018-10-12T09:01:10.396Z,1018.24
2018-10-12T09:02:10.352Z,1018.25
2018-10-12T09:03:10.307Z,1018.21
2018-10-12T09:04:10.260Z,1018.18
2018-10-12T09:05:10.222Z,1018.22
2018-10-12T09:06:10.172Z,1018.21
2018-10-12T09:07:10.124Z,1018.28
2018-10-12T09:08:10.081Z,1018.27
2018-10-12T09:09:10.034Z,1018.28
2018-10-12T09:10:09.988Z,1018.30
2018-10-12T09:11:09.946Z,1018.31
2018-10-12T09:12:09.900Z,1018.35
2018-10-12T09:13:09.852Z,1018.39
2018-10-12T09:14:09.807Z,1018.37
2018-10-12T09:15:09.776Z,1018.42
2018-10-12T09:16:09.829Z,1018.45
2018-10-12T09:17:09.670Z,1018.46
2018-10-12T09:18:09.625Z,1018.45
2018-10-12T09:19:09.578Z,1018.43
2018-10-12T09:20:09.606Z,1018.46
2018-10-12T09:21:09.488Z,1018.44
2018-10-12T09:22:09.493Z,1018.45
2018-10-12T09:23:09.396Z,1018.45
2018-10-12T09:24:09.351Z,1018.47
2018-10-12T09:25:09.306Z,1018.47
2018-10-12T09:26:09.260Z,1018.50
2018-10-12T09:27:09.215Z,1018.51
2018-10-12T09:28:09.169Z,1018.44
2018-10-12T09:29:09.127Z,1018.46
2018-10-12T09:30:09.097Z,1018.40
2018-10-12T09:31:09.033Z,1018.40
2018-10-12T09:32:08.989Z,1018.40
2018-10-12T09:33:08.942Z,1018.42
2018-10-12T09:34:08.897Z,1018.46
2018-10-12T09:35:08.850Z,1018.44
2018-10-12T09:36:08.803Z,1018.47
2018-10-12T09:37:08.845Z,1018.47
2018-10-12T09:38:08.715Z,1018.51
2018-10-12T09:39:08.671Z,1018.55
2018-10-12T09:40:08.623Z,1018.48
2018-10-12T09:41:08.579Z,1018.48
2018-10-12T09:42:08.532Z,1018.47
2018-10-12T09:43:08.527Z,1018.46
2018-10-12T09:44:08.441Z,1018.48
2018-10-12T09:45:08.395Z,1018.45
2018-10-12T09:46:08.350Z,1018.49
2018-10-12T09:47:08.304Z,1018.45
2018-10-12T09:48:08.257Z,1018.49
2018-10-12T09:49:08.213Z,1018.46
2018-10-12T09:50:08.169Z,1018.50
2018-10-12T09:51:08.121Z,1018.52
2018-10-12T09:52:08.077Z,1018.52
2018-10-12T09:53:08.031Z,1018.54
2018-10-12T09:54:07.986Z,1018.53
2018-10-12T09:55:07.940Z,1018.58
2018-10-12T09:56:07.944Z,1018.59
2018-10-12T09:57:07.849Z,1018.60
2018-10-12T09:58:07.804Z,1018.59
2018-10-12T09:59:07.757Z,1018.58
2018-10-12T10:00:07.819Z,1018.59
2018-10-12T10:01:07.666Z,1018.64
2018-10-12T10:02:07.692Z,1018.64
2018-10-12T10:03:07.575Z,1018.64
2018-10-12T10:04:07.530Z,1018.64
2018-10-12T10:05:07.485Z,1018.64
2018-10-12T10:06:07.439Z,1018.58
2018-10-12T10:07:07.393Z,1018.62
2018-10-12T10:08:07.507Z,1018.62
2018-10-12T10:09:07.438Z,1018.61
2018-10-12T10:10:07.259Z,1018.67
2018-10-12T10:11:07.211Z,1018.69
2018-10-12T10:12:07.165Z,1018.68
2018-10-12T10:13:07.120Z,1018.66
2018-10-12T10:14:07.076Z,1018.62
2018-10-12T10:15:07.032Z,1018.59
2018-10-12T10:16:07.033Z,1018.61
2018-10-12T10:17:06.938Z,1018.57
2018-10-12T10:18:06.893Z,1018.59
2018-10-12T10:19:06.895Z,1018.57
2018-10-12T10:20:06.801Z,1018.59
2018-10-12T10:21:06.756Z,1018.61
2018-10-12T10:22:06.711Z,1018.64
2018-10-12T10:23:06.665Z,1018.63
2018-10-12T10:24:06.619Z,1018.62
2018-10-12T10:25:06.632Z,1018.59
2018-10-12T10:26:06.528Z,1018.55
2018-10-12T10:27:06.533Z,1018.52
2018-10-12T10:28:06.437Z,1018.47
2018-10-12T10:29:06.430Z,1018.40
2018-10-12T10:30:06.347Z,1018.42
2018-10-12T10:31:06.300Z,1018.42
2018-10-12T10:32:06.298Z,1018.41
2018-10-12T10:33:06.209Z,1018.35
2018-10-12T10:34:06.164Z,1018.38
2018-10-12T10:35:06.120Z,1018.40
2018-10-12T10:36:06.073Z,1018.41
2018-10-12T10:37:06.027Z,1018.40
2018-10-12T10:38:05.982Z,1018.35
2018-10-12T10:39:06.059Z,1018.33
2018-10-12T10:40:05.890Z,1018.37
2018-10-12T10:41:05.848Z,1018.32
2018-10-12T10:42:05.800Z,1018.29
2018-10-12T10:43:05.753Z,1018.32
2018-10-12T10:44:05.708Z,1018.22
2018-10-12T10:45:05.663Z,1018.23
2018-10-12T10:46:05.619Z,1018.14
2018-10-12T10:47:05.570Z,1018.09
2018-10-12T10:48:05.525Z,1018.12
2018-10-12T10:49:05.481Z,1018.08
2018-10-12T10:50:05.435Z,1018.08
2018-10-12T10:51:05.391Z,1018.13
2018-10-12T10:52:05.342Z,1018.11
2018-10-12T10:53:05.347Z,1018.17
2018-10-12T10:54:05.253Z,1018.25
2018-10-12T10:55:05.208Z,1018.33
2018-10-12T10:56:05.164Z,1018.41
2018-10-12T10:57:05.116Z,1018.43
2018-10-12T10:58:05.071Z,1018.47
2018-10-12T10:59:05.027Z,1018.44
2018-10-12T11:00:04.977Z,1018.44
2018-10-12T11:01:04.986Z,1018.41
2018-10-12T11:02:04.888Z,1018.41
2018-10-12T11:03:04.840Z,1018.40
2018-10-12T11:04:04.797Z,1018.34
2018-10-12T11:05:04.751Z,1018.31
2018-10-12T11:06:04.706Z,1018.32
2018-10-12T11:07:04.663Z,1018.30
2018-10-12T11:08:04.614Z,1018.34
2018-10-12T11:09:04.570Z,1018.31
2018-10-12T11:10:04.524Z,1018.25
2018-10-12T11:11:04.477Z,1018.28
2018-10-12T11:12:04.533Z,1018.32
2018-10-12T11:13:04.492Z,1018.32
2018-10-12T11:14:04.340Z,1018.25
2018-10-12T11:15:04.294Z,1018.22
2018-10-12T11:16:04.249Z,1018.19
2018-10-12T11:17:04.205Z,1018.20
2018-10-12T11:18:04.159Z,1018.23
2018-10-12T11:19:04.112Z,1018.22
2018-10-12T11:20:04.069Z,1018.24
2018-10-12T11:21:04.021Z,1018.22
2018-10-12T11:22:03.977Z,1018.25
2018-10-12T11:23:03.930Z,1018.26
2018-10-12T11:24:03.885Z,1018.24
2018-10-12T11:25:03.840Z,1018.27
2018-10-12T11:26:03.794Z,1018.23
2018-10-12T11:27:03.749Z,1018.22
2018-10-12T11:28:03.706Z,1018.22
2018-10-12T11:29:03.666Z,1018.28
2018-10-12T11:30:03.615Z,1018.32
2018-10-12T11:31:03.566Z,1018.31
2018-10-12T11:32:03.521Z,1018.33
2018-10-12T11:33:03.500Z,1018.33
2018-10-12T11:34:03.429Z,1018.35
2018-10-12T11:35:03.384Z,1018.32
2018-10-12T11:36:03.339Z,1018.36
2018-10-12T11:37:03.293Z,1018.32
2018-10-12T11:38:03.251Z,1018.27
2018-10-12T11:39:03.204Z,1018.30
2018-10-12T11:40:03.156Z,1018.28
2018-10-12T11:41:03.111Z,1018.20
2018-10-12T11:42:03.067Z,1018.24
2018-10-12T11:43:03.019Z,1018.18
2018-10-12T11:44:02.981Z,1018.17
2018-10-12T11:45:03.015Z,1018.13
2018-10-12T11:46:02.882Z,1018.13
2018-10-12T11:47:02.837Z,1018.20
2018-10-12T11:48:02.792Z,1018.23
2018-10-12T11:49:02.747Z,1018.24
2018-10-12T11:50:02.701Z,1018.34
2018-10-12T11:51:02.656Z,1018.32
2018-10-12T11:52:02.645Z,1018.36
2018-10-12T11:53:02.567Z,1018.42
2018-10-12T11:54:02.519Z,1018.39
2018-10-12T11:55:02.474Z,1018.40
2018-10-12T11:56:02.428Z,1018.43
2018-10-12T11:57:02.383Z,1018.39
2018-10-12T11:58:02.338Z,1018.39
2018-10-12T11:59:02.294Z,1018.40
2018-10-12T12:00:02.245Z,1018.40
2018-10-12T12:01:02.337Z,1018.40
2018-10-12T12:02:02.158Z,1018.40
2018-10-12T12:03:02.110Z,1018.36
2018-10-12T12:04:02.064Z,1018.37
2018-10-12T12:05:02.019Z,1018.36